sensor_id;sensor_type;location;lat;lon;timestamp;P1;durP1;ratioP1;P2;durP2;ratioP2
56860;SDS011;42744;51.094;3.490;2022-08-25T00:01:34;7.93;;;7.22;;
56860;SDS011;42744;51.094;3.490;2022-08-25T00:04:03;8.93;;;8.02;;
56860;SDS011;42744;51.094;3.490;2022-08-25T00:06:33;9.10;;;8.18;;
56860;SDS011;42744;51.094;3.490;2022-08-25T00:08:58;10.15;;;9.00;;
56860;SDS011;42744;51.094;3.490;2022-08-25T00:11:26;8.63;;;7.72;;
56860;SDS011;42744;51.094;3.490;2022-08-25T00:13:58;9.07;;;8.18;;
56860;SDS011;42744;51.094;3.490;2022-08-25T00:16:27;9.02;;;8.23;;
56860;SDS011;42744;51.094;3.490;2022-08-25T00:18:56;10.43;;;8.93;;
56860;SDS011;42744;51.094;3.490;2022-08-25T00:21:24;10.07;;;8.77;;
56860;SDS011;42744;51.094;3.490;2022-08-25T00:23:52;9.68;;;8.63;;
56860;SDS011;42744;51.094;3.490;2022-08-25T00:26:18;8.88;;;8.07;;
56860;SDS011;42744;51.094;3.490;2022-08-25T00:28:45;9.98;;;8.55;;
56860;SDS011;42744;51.094;3.490;2022-08-25T00:31:12;10.27;;;9.25;;
56860;SDS011;42744;51.094;3.490;2022-08-25T00:33:41;9.40;;;8.23;;
56860;SDS011;42744;51.094;3.490;2022-08-25T00:36:09;9.70;;;8.80;;
56860;SDS011;42744;51.094;3.490;2022-08-25T00:38:39;8.98;;;8.07;;
56860;SDS011;42744;51.094;3.490;2022-08-25T00:41:06;9.45;;;8.55;;
56860;SDS011;42744;51.094;3.490;2022-08-25T00:43:43;11.48;;;10.38;;
56860;SDS011;42744;51.094;3.490;2022-08-25T00:46:13;10.45;;;9.57;;
56860;SDS011;42744;51.094;3.490;2022-08-25T00:48:43;11.68;;;10.52;;
56860;SDS011;42744;51.094;3.490;2022-08-25T00:51:12;10.00;;;9.13;;
56860;SDS011;42744;51.094;3.490;2022-08-25T00:53:42;10.15;;;9.30;;
56860;SDS011;42744;51.094;3.490;2022-08-25T00:56:09;11.05;;;10.13;;
56860;SDS011;42744;51.094;3.490;2022-08-25T00:58:36;12.30;;;11.20;;
56860;SDS011;42744;51.094;3.490;2022-08-25T01:01:04;12.18;;;11.07;;
56860;SDS011;42744;51.094;3.490;2022-08-25T01:03:30;11.52;;;10.38;;
56860;SDS011;42744;51.094;3.490;2022-08-25T01:05:58;12.02;;;10.90;;
56860;SDS011;42744;51.094;3.490;2022-08-25T01:08:27;12.00;;;10.93;;
56860;SDS011;42744;51.094;3.490;2022-08-25T01:10:57;12.32;;;11.18;;
56860;SDS011;42744;51.094;3.490;2022-08-25T01:16:34;12.45;;;11.32;;
56860;SDS011;42744;51.094;3.490;2022-08-25T01:19:02;11.68;;;10.57;;
56860;SDS011;42744;51.094;3.490;2022-08-25T01:21:35;15.65;;;13.32;;
56860;SDS011;42744;51.094;3.490;2022-08-25T01:24:04;12.27;;;11.18;;
56860;SDS011;42744;51.094;3.490;2022-08-25T01:26:31;14.93;;;13.40;;
56860;SDS011;42744;51.094;3.490;2022-08-25T01:29:00;13.95;;;12.52;;
56860;SDS011;42744;51.094;3.490;2022-08-25T01:31:46;14.63;;;13.23;;
56860;SDS011;42744;51.094;3.490;2022-08-25T01:34:17;13.10;;;12.00;;
56860;SDS011;42744;51.094;3.490;2022-08-25T01:36:44;14.43;;;13.13;;
56860;SDS011;42744;51.094;3.490;2022-08-25T01:39:11;15.25;;;13.85;;
56860;SDS011;42744;51.094;3.490;2022-08-25T01:44:13;16.00;;;14.50;;
56860;SDS011;42744;51.094;3.490;2022-08-25T01:46:40;15.63;;;14.23;;
56860;SDS011;42744;51.094;3.490;2022-08-25T01:49:06;13.93;;;12.82;;
56860;SDS011;42744;51.094;3.490;2022-08-25T01:51:37;14.50;;;13.30;;
56860;SDS011;42744;51.094;3.490;2022-08-25T01:54:07;14.47;;;13.00;;
56860;SDS011;42744;51.094;3.490;2022-08-25T01:56:33;18.83;;;15.30;;
56860;SDS011;42744;51.094;3.490;2022-08-25T01:59:00;16.37;;;14.90;;
56860;SDS011;42744;51.094;3.490;2022-08-25T02:01:26;17.20;;;15.70;;
56860;SDS011;42744;51.094;3.490;2022-08-25T02:03:54;19.33;;;17.47;;
56860;SDS011;42744;51.094;3.490;2022-08-25T02:06:28;17.33;;;15.73;;
56860;SDS011;42744;51.094;3.490;2022-08-25T02:09:00;18.70;;;17.00;;
56860;SDS011;42744;51.094;3.490;2022-08-25T02:11:30;20.40;;;18.60;;
56860;SDS011;42744;51.094;3.490;2022-08-25T02:13:58;21.48;;;19.67;;
56860;SDS011;42744;51.094;3.490;2022-08-25T02:16:25;19.50;;;17.77;;
56860;SDS011;42744;51.094;3.490;2022-08-25T02:18:56;20.13;;;18.23;;
56860;SDS011;42744;51.094;3.490;2022-08-25T02:21:28;19.60;;;17.97;;
56860;SDS011;42744;51.094;3.490;2022-08-25T02:23:54;19.90;;;18.07;;
56860;SDS011;42744;51.094;3.490;2022-08-25T02:26:21;20.37;;;18.47;;
56860;SDS011;42744;51.094;3.490;2022-08-25T02:28:47;22.23;;;20.27;;
56860;SDS011;42744;51.094;3.490;2022-08-25T02:31:15;21.40;;;19.50;;
56860;SDS011;42744;51.094;3.490;2022-08-25T02:33:43;20.70;;;18.93;;
56860;SDS011;42744;51.094;3.490;2022-08-25T02:36:10;22.23;;;20.10;;
56860;SDS011;42744;51.094;3.490;2022-08-25T02:38:36;22.43;;;20.53;;
56860;SDS011;42744;51.094;3.490;2022-08-25T02:41:08;21.63;;;19.47;;
56860;SDS011;42744;51.094;3.490;2022-08-25T02:43:40;21.70;;;19.77;;
56860;SDS011;42744;51.094;3.490;2022-08-25T02:46:08;23.37;;;21.20;;
56860;SDS011;42744;51.094;3.490;2022-08-25T02:48:35;22.37;;;20.37;;
56860;SDS011;42744;51.094;3.490;2022-08-25T02:51:02;22.43;;;20.27;;
56860;SDS011;42744;51.094;3.490;2022-08-25T02:53:30;24.00;;;21.80;;
56860;SDS011;42744;51.094;3.490;2022-08-25T02:55:57;23.77;;;21.50;;
56860;SDS011;42744;51.094;3.490;2022-08-25T02:58:23;22.43;;;20.47;;
56860;SDS011;42744;51.094;3.490;2022-08-25T03:00:50;24.13;;;21.63;;
56860;SDS011;42744;51.094;3.490;2022-08-25T03:03:15;22.23;;;20.13;;
56860;SDS011;42744;51.094;3.490;2022-08-25T03:05:42;23.53;;;21.43;;
56860;SDS011;42744;51.094;3.490;2022-08-25T03:08:08;24.07;;;21.87;;
56860;SDS011;42744;51.094;3.490;2022-08-25T03:10:36;21.87;;;19.87;;
56860;SDS011;42744;51.094;3.490;2022-08-25T03:13:02;24.47;;;22.37;;
56860;SDS011;42744;51.094;3.490;2022-08-25T03:15:29;23.23;;;21.13;;
56860;SDS011;42744;51.094;3.490;2022-08-25T03:17:55;24.63;;;22.43;;
56860;SDS011;42744;51.094;3.490;2022-08-25T03:20:22;23.40;;;21.30;;
56860;SDS011;42744;51.094;3.490;2022-08-25T03:22:49;23.53;;;21.37;;
56860;SDS011;42744;51.094;3.490;2022-08-25T03:25:16;23.40;;;21.10;;
56860;SDS011;42744;51.094;3.490;2022-08-25T03:28:02;22.90;;;20.80;;
56860;SDS011;42744;51.094;3.490;2022-08-25T03:30:29;22.57;;;20.50;;
56860;SDS011;42744;51.094;3.490;2022-08-25T03:32:55;23.00;;;20.83;;
56860;SDS011;42744;51.094;3.490;2022-08-25T03:35:21;21.70;;;19.67;;
56860;SDS011;42744;51.094;3.490;2022-08-25T03:37:47;21.80;;;19.73;;
56860;SDS011;42744;51.094;3.490;2022-08-25T03:40:14;22.13;;;20.13;;
56860;SDS011;42744;51.094;3.490;2022-08-25T03:42:42;21.67;;;19.77;;
56860;SDS011;42744;51.094;3.490;2022-08-25T03:45:10;21.70;;;19.60;;
56860;SDS011;42744;51.094;3.490;2022-08-25T03:47:37;22.63;;;20.53;;
56860;SDS011;42744;51.094;3.490;2022-08-25T03:50:05;23.73;;;21.53;;
56860;SDS011;42744;51.094;3.490;2022-08-25T03:52:33;23.33;;;21.03;;
56860;SDS011;42744;51.094;3.490;2022-08-25T03:54:59;23.33;;;21.13;;
56860;SDS011;42744;51.094;3.490;2022-08-25T03:57:25;24.30;;;22.10;;
56860;SDS011;42744;51.094;3.490;2022-08-25T03:59:51;25.00;;;22.40;;
56860;SDS011;42744;51.094;3.490;2022-08-25T04:02:18;24.20;;;21.83;;
56860;SDS011;42744;51.094;3.490;2022-08-25T04:04:44;23.97;;;21.67;;
56860;SDS011;42744;51.094;3.490;2022-08-25T04:07:10;23.43;;;21.23;;
56860;SDS011;42744;51.094;3.490;2022-08-25T04:09:36;23.97;;;21.70;;
56860;SDS011;42744;51.094;3.490;2022-08-25T04:12:03;25.00;;;22.57;;
56860;SDS011;42744;51.094;3.490;2022-08-25T04:14:29;22.13;;;19.97;;
56860;SDS011;42744;51.094;3.490;2022-08-25T04:16:55;23.63;;;21.43;;
56860;SDS011;42744;51.094;3.490;2022-08-25T04:19:21;25.90;;;23.47;;
56860;SDS011;42744;51.094;3.490;2022-08-25T04:21:47;23.97;;;21.70;;
56860;SDS011;42744;51.094;3.490;2022-08-25T04:24:14;23.90;;;21.70;;
56860;SDS011;42744;51.094;3.490;2022-08-25T04:26:41;23.23;;;20.93;;
56860;SDS011;42744;51.094;3.490;2022-08-25T04:29:10;24.80;;;22.47;;
56860;SDS011;42744;51.094;3.490;2022-08-25T04:31:39;25.30;;;22.90;;
56860;SDS011;42744;51.094;3.490;2022-08-25T04:34:07;24.03;;;21.73;;
56860;SDS011;42744;51.094;3.490;2022-08-25T04:36:34;24.83;;;22.43;;
56860;SDS011;42744;51.094;3.490;2022-08-25T04:39:00;23.87;;;21.73;;
56860;SDS011;42744;51.094;3.490;2022-08-25T04:41:27;24.07;;;21.93;;
56860;SDS011;42744;51.094;3.490;2022-08-25T04:43:55;24.37;;;21.90;;
56860;SDS011;42744;51.094;3.490;2022-08-25T04:46:23;24.67;;;22.37;;
56860;SDS011;42744;51.094;3.490;2022-08-25T04:48:53;24.63;;;22.23;;
56860;SDS011;42744;51.094;3.490;2022-08-25T04:51:21;24.37;;;22.17;;
56860;SDS011;42744;51.094;3.490;2022-08-25T04:53:49;24.30;;;22.10;;
56860;SDS011;42744;51.094;3.490;2022-08-25T04:56:16;25.10;;;22.50;;
56860;SDS011;42744;51.094;3.490;2022-08-25T04:58:45;22.97;;;20.87;;
56860;SDS011;42744;51.094;3.490;2022-08-25T05:01:12;23.27;;;21.07;;
56860;SDS011;42744;51.094;3.490;2022-08-25T05:03:42;23.30;;;20.97;;
56860;SDS011;42744;51.094;3.490;2022-08-25T05:06:09;23.50;;;21.30;;
56860;SDS011;42744;51.094;3.490;2022-08-25T05:08:35;22.40;;;20.40;;
56860;SDS011;42744;51.094;3.490;2022-08-25T05:11:05;24.20;;;21.63;;
56860;SDS011;42744;51.094;3.490;2022-08-25T05:13:33;23.50;;;21.47;;
56860;SDS011;42744;51.094;3.490;2022-08-25T05:15:59;24.27;;;21.97;;
56860;SDS011;42744;51.094;3.490;2022-08-25T05:18:27;24.77;;;22.30;;
56860;SDS011;42744;51.094;3.490;2022-08-25T05:20:55;24.47;;;22.17;;
56860;SDS011;42744;51.094;3.490;2022-08-25T05:23:25;23.17;;;21.07;;
56860;SDS011;42744;51.094;3.490;2022-08-25T05:25:52;23.77;;;21.53;;
56860;SDS011;42744;51.094;3.490;2022-08-25T05:28:18;24.67;;;22.20;;
56860;SDS011;42744;51.094;3.490;2022-08-25T05:30:46;21.63;;;19.60;;
56860;SDS011;42744;51.094;3.490;2022-08-25T05:33:15;24.50;;;21.93;;
56860;SDS011;42744;51.094;3.490;2022-08-25T05:35:42;24.00;;;21.63;;
56860;SDS011;42744;51.094;3.490;2022-08-25T05:38:09;24.23;;;22.03;;
56860;SDS011;42744;51.094;3.490;2022-08-25T05:40:35;24.17;;;21.87;;
56860;SDS011;42744;51.094;3.490;2022-08-25T05:43:01;24.53;;;22.23;;
56860;SDS011;42744;51.094;3.490;2022-08-25T05:45:27;24.97;;;22.53;;
56860;SDS011;42744;51.094;3.490;2022-08-25T05:47:53;26.30;;;23.83;;
56860;SDS011;42744;51.094;3.490;2022-08-25T05:50:19;25.63;;;23.30;;
56860;SDS011;42744;51.094;3.490;2022-08-25T05:52:45;25.93;;;23.33;;
56860;SDS011;42744;51.094;3.490;2022-08-25T05:55:11;25.23;;;22.83;;
56860;SDS011;42744;51.094;3.490;2022-08-25T05:57:37;26.50;;;24.10;;
56860;SDS011;42744;51.094;3.490;2022-08-25T06:00:04;27.70;;;24.90;;
56860;SDS011;42744;51.094;3.490;2022-08-25T06:02:37;25.57;;;22.87;;
56860;SDS011;42744;51.094;3.490;2022-08-25T06:05:10;26.80;;;24.33;;
56860;SDS011;42744;51.094;3.490;2022-08-25T06:07:38;26.93;;;24.53;;
56860;SDS011;42744;51.094;3.490;2022-08-25T06:10:05;26.87;;;24.27;;
56860;SDS011;42744;51.094;3.490;2022-08-25T06:12:36;26.63;;;24.03;;
56860;SDS011;42744;51.094;3.490;2022-08-25T06:15:03;27.90;;;25.13;;
56860;SDS011;42744;51.094;3.490;2022-08-25T06:17:30;27.93;;;25.17;;
56860;SDS011;42744;51.094;3.490;2022-08-25T06:19:56;25.77;;;23.17;;
56860;SDS011;42744;51.094;3.490;2022-08-25T06:22:22;25.37;;;22.73;;
56860;SDS011;42744;51.094;3.490;2022-08-25T06:24:50;25.70;;;22.93;;
56860;SDS011;42744;51.094;3.490;2022-08-25T06:27:16;24.63;;;22.10;;
56860;SDS011;42744;51.094;3.490;2022-08-25T06:29:42;26.50;;;23.87;;
56860;SDS011;42744;51.094;3.490;2022-08-25T06:32:08;25.77;;;23.17;;
56860;SDS011;42744;51.094;3.490;2022-08-25T06:34:35;24.30;;;21.80;;
56860;SDS011;42744;51.094;3.490;2022-08-25T06:37:00;26.20;;;21.67;;
56860;SDS011;42744;51.094;3.490;2022-08-25T06:39:27;20.60;;;18.40;;
56860;SDS011;42744;51.094;3.490;2022-08-25T06:41:53;22.80;;;20.50;;
56860;SDS011;42744;51.094;3.490;2022-08-25T06:44:23;25.97;;;21.57;;
56860;SDS011;42744;51.094;3.490;2022-08-25T06:46:51;23.00;;;20.07;;
56860;SDS011;42744;51.094;3.490;2022-08-25T06:49:18;22.67;;;20.53;;
56860;SDS011;42744;51.094;3.490;2022-08-25T06:51:44;22.80;;;20.43;;
56860;SDS011;42744;51.094;3.490;2022-08-25T06:54:10;27.52;;;21.42;;
56860;SDS011;42744;51.094;3.490;2022-08-25T06:56:38;25.93;;;20.87;;
56860;SDS011;42744;51.094;3.490;2022-08-25T06:59:05;26.10;;;20.50;;
56860;SDS011;42744;51.094;3.490;2022-08-25T07:01:33;23.00;;;19.23;;
56860;SDS011;42744;51.094;3.490;2022-08-25T07:04:01;19.33;;;17.23;;
56860;SDS011;42744;51.094;3.490;2022-08-25T07:06:30;20.87;;;18.77;;
56860;SDS011;42744;51.094;3.490;2022-08-25T07:08:57;18.70;;;16.90;;
56860;SDS011;42744;51.094;3.490;2022-08-25T07:11:24;21.70;;;19.43;;
56860;SDS011;42744;51.094;3.490;2022-08-25T07:13:50;20.77;;;18.67;;
56860;SDS011;42744;51.094;3.490;2022-08-25T07:16:17;21.53;;;19.27;;
56860;SDS011;42744;51.094;3.490;2022-08-25T07:18:45;20.87;;;18.53;;
56860;SDS011;42744;51.094;3.490;2022-08-25T07:21:12;22.57;;;18.33;;
56860;SDS011;42744;51.094;3.490;2022-08-25T07:23:40;20.30;;;18.15;;
56860;SDS011;42744;51.094;3.490;2022-08-25T07:26:13;17.73;;;16.02;;
56860;SDS011;42744;51.094;3.490;2022-08-25T07:28:45;19.60;;;16.90;;
56860;SDS011;42744;51.094;3.490;2022-08-25T07:31:11;18.10;;;16.30;;
56860;SDS011;42744;51.094;3.490;2022-08-25T07:33:38;19.33;;;17.37;;
56860;SDS011;42744;51.094;3.490;2022-08-25T07:36:30;17.17;;;15.43;;
56860;SDS011;42744;51.094;3.490;2022-08-25T07:38:57;18.00;;;14.27;;
56860;SDS011;42744;51.094;3.490;2022-08-25T07:41:24;17.65;;;14.27;;
56860;SDS011;42744;51.094;3.490;2022-08-25T07:43:51;15.10;;;13.50;;
56860;SDS011;42744;51.094;3.490;2022-08-25T07:46:17;13.07;;;10.88;;
56860;SDS011;42744;51.094;3.490;2022-08-25T07:48:43;14.10;;;8.93;;
56860;SDS011;42744;51.094;3.490;2022-08-25T07:51:10;10.55;;;9.25;;
56860;SDS011;42744;51.094;3.490;2022-08-25T07:53:41;8.93;;;7.95;;
56860;SDS011;42744;51.094;3.490;2022-08-25T07:56:11;9.25;;;7.50;;
56860;SDS011;42744;51.094;3.490;2022-08-25T07:58:40;10.75;;;6.80;;
56860;SDS011;42744;51.094;3.490;2022-08-25T08:01:11;9.63;;;6.43;;
56860;SDS011;42744;51.094;3.490;2022-08-25T08:03:39;9.80;;;7.05;;
56860;SDS011;42744;51.094;3.490;2022-08-25T08:06:12;6.80;;;6.10;;
56860;SDS011;42744;51.094;3.490;2022-08-25T08:08:41;11.43;;;6.50;;
56860;SDS011;42744;51.094;3.490;2022-08-25T08:11:13;11.05;;;5.93;;
56860;SDS011;42744;51.094;3.490;2022-08-25T08:13:44;5.95;;;5.35;;
56860;SDS011;42744;51.094;3.490;2022-08-25T08:16:12;6.62;;;5.50;;
56860;SDS011;42744;51.094;3.490;2022-08-25T08:18:40;10.57;;;6.12;;
56860;SDS011;42744;51.094;3.490;2022-08-25T08:21:12;10.07;;;6.10;;
56860;SDS011;42744;51.094;3.490;2022-08-25T08:23:42;7.43;;;5.80;;
56860;SDS011;42744;51.094;3.490;2022-08-25T08:26:09;6.68;;;5.20;;
56860;SDS011;42744;51.094;3.490;2022-08-25T08:28:35;6.55;;;5.10;;
56860;SDS011;42744;51.094;3.490;2022-08-25T08:31:01;9.30;;;4.75;;
56860;SDS011;42744;51.094;3.490;2022-08-25T08:33:27;12.57;;;5.25;;
56860;SDS011;42744;51.094;3.490;2022-08-25T08:36:01;5.93;;;4.05;;
56860;SDS011;42744;51.094;3.490;2022-08-25T08:38:30;8.07;;;4.45;;
56860;SDS011;42744;51.094;3.490;2022-08-25T08:41:02;7.15;;;4.03;;
56860;SDS011;42744;51.094;3.490;2022-08-25T08:46:38;8.77;;;3.80;;
56860;SDS011;42744;51.094;3.490;2022-08-25T08:49:17;8.45;;;3.75;;
56860;SDS011;42744;51.094;3.490;2022-08-25T08:51:56;7.22;;;3.47;;
56860;SDS011;42744;51.094;3.490;2022-08-25T08:54:27;7.22;;;3.00;;
56860;SDS011;42744;51.094;3.490;2022-08-25T08:57:18;6.30;;;2.95;;
56860;SDS011;42744;51.094;3.490;2022-08-25T08:59:49;14.23;;;3.15;;
56860;SDS011;42744;51.094;3.490;2022-08-25T09:02:41;5.37;;;3.22;;
56860;SDS011;42744;51.094;3.490;2022-08-25T09:05:34;7.25;;;2.67;;
56860;SDS011;42744;51.094;3.490;2022-08-25T09:08:09;4.90;;;2.62;;
56860;SDS011;42744;51.094;3.490;2022-08-25T09:13:30;4.05;;;2.28;;
56860;SDS011;42744;51.094;3.490;2022-08-25T09:30:30;8.77;;;2.08;;
56860;SDS011;42744;51.094;3.490;2022-08-25T09:33:05;7.37;;;3.08;;
56860;SDS011;42744;51.094;3.490;2022-08-25T09:35:33;6.55;;;2.25;;
56860;SDS011;42744;51.094;3.490;2022-08-25T09:38:05;4.72;;;2.30;;
56860;SDS011;42744;51.094;3.490;2022-08-25T09:40:41;6.32;;;2.35;;
56860;SDS011;42744;51.094;3.490;2022-08-25T09:46:10;4.30;;;2.30;;
56860;SDS011;42744;51.094;3.490;2022-08-25T09:48:44;5.10;;;2.28;;
56860;SDS011;42744;51.094;3.490;2022-08-25T09:53:47;6.95;;;2.35;;
56860;SDS011;42744;51.094;3.490;2022-08-25T09:56:19;6.35;;;2.40;;
56860;SDS011;42744;51.094;3.490;2022-08-25T09:58:47;3.90;;;2.20;;
56860;SDS011;42744;51.094;3.490;2022-08-25T10:01:21;9.23;;;2.37;;
56860;SDS011;42744;51.094;3.490;2022-08-25T10:03:56;5.60;;;2.65;;
56860;SDS011;42744;51.094;3.490;2022-08-25T10:06:22;6.68;;;2.20;;
56860;SDS011;42744;51.094;3.490;2022-08-25T10:11:31;5.80;;;2.28;;
56860;SDS011;42744;51.094;3.490;2022-08-25T10:14:06;7.60;;;2.75;;
56860;SDS011;42744;51.094;3.490;2022-08-25T10:16:45;5.35;;;2.58;;
56860;SDS011;42744;51.094;3.490;2022-08-25T10:19:21;4.68;;;2.40;;
56860;SDS011;42744;51.094;3.490;2022-08-25T10:22:19;6.47;;;2.50;;
56860;SDS011;42744;51.094;3.490;2022-08-25T10:24:48;3.75;;;2.10;;
56860;SDS011;42744;51.094;3.490;2022-08-25T10:30:00;4.60;;;2.10;;
56860;SDS011;42744;51.094;3.490;2022-08-25T10:32:44;4.57;;;2.20;;
56860;SDS011;42744;51.094;3.490;2022-08-25T10:49:55;11.98;;;2.40;;
56860;SDS011;42744;51.094;3.490;2022-08-25T10:52:37;5.35;;;2.35;;
56860;SDS011;42744;51.094;3.490;2022-08-25T10:55:19;5.37;;;2.20;;
56860;SDS011;42744;51.094;3.490;2022-08-25T10:57:56;4.07;;;2.90;;
56860;SDS011;42744;51.094;3.490;2022-08-25T11:00:33;5.72;;;3.10;;
56860;SDS011;42744;51.094;3.490;2022-08-25T11:08:31;7.70;;;2.97;;
56860;SDS011;42744;51.094;3.490;2022-08-25T11:11:09;4.20;;;2.87;;
56860;SDS011;42744;51.094;3.490;2022-08-25T11:13:40;8.30;;;3.15;;
56860;SDS011;42744;51.094;3.490;2022-08-25T11:16:11;6.75;;;3.67;;
56860;SDS011;42744;51.094;3.490;2022-08-25T11:18:45;6.00;;;3.50;;
56860;SDS011;42744;51.094;3.490;2022-08-25T11:21:46;5.78;;;3.42;;
56860;SDS011;42744;51.094;3.490;2022-08-25T11:24:17;7.25;;;4.53;;
56860;SDS011;42744;51.094;3.490;2022-08-25T11:26:56;13.55;;;6.85;;
56860;SDS011;42744;51.094;3.490;2022-08-25T11:29:30;11.43;;;6.45;;
56860;SDS011;42744;51.094;3.490;2022-08-25T11:32:01;10.38;;;6.43;;
56860;SDS011;42744;51.094;3.490;2022-08-25T11:34:32;17.20;;;9.48;;
56860;SDS011;42744;51.094;3.490;2022-08-25T11:37:06;9.80;;;7.80;;
56860;SDS011;42744;51.094;3.490;2022-08-25T11:45:16;10.68;;;7.32;;
56860;SDS011;42744;51.094;3.490;2022-08-25T11:50:32;14.38;;;10.57;;
56860;SDS011;42744;51.094;3.490;2022-08-25T12:00:46;9.73;;;8.07;;
56860;SDS011;42744;51.094;3.490;2022-08-25T12:06:13;13.52;;;11.73;;
56860;SDS011;42744;51.094;3.490;2022-08-25T12:11:46;13.77;;;12.43;;
56860;SDS011;42744;51.094;3.490;2022-08-25T12:21:53;14.95;;;12.98;;
56860;SDS011;42744;51.094;3.490;2022-08-25T12:27:31;15.27;;;13.68;;
56860;SDS011;42744;51.094;3.490;2022-08-25T12:30:26;16.02;;;12.07;;
56860;SDS011;42744;51.094;3.490;2022-08-25T12:36:01;15.82;;;9.73;;
56860;SDS011;42744;51.094;3.490;2022-08-25T12:41:12;13.30;;;8.07;;
56860;SDS011;42744;51.094;3.490;2022-08-25T12:43:39;12.55;;;11.25;;
56860;SDS011;42744;51.094;3.490;2022-08-25T12:51:18;16.20;;;11.52;;
56860;SDS011;42744;51.094;3.490;2022-08-25T12:59:32;17.17;;;13.25;;
56860;SDS011;42744;51.094;3.490;2022-08-25T13:10:41;15.50;;;12.68;;
56860;SDS011;42744;51.094;3.490;2022-08-25T13:13:10;14.23;;;11.77;;
56860;SDS011;42744;51.094;3.490;2022-08-25T13:16:02;16.00;;;14.40;;
56860;SDS011;42744;51.094;3.490;2022-08-25T13:18:33;16.33;;;14.63;;
56860;SDS011;42744;51.094;3.490;2022-08-25T13:21:16;14.73;;;13.15;;
56860;SDS011;42744;51.094;3.490;2022-08-25T13:23:52;21.52;;;13.45;;
56860;SDS011;42744;51.094;3.490;2022-08-25T13:26:21;19.45;;;15.38;;
56860;SDS011;42744;51.094;3.490;2022-08-25T13:31:24;19.25;;;16.55;;
56860;SDS011;42744;51.094;3.490;2022-08-25T13:33:58;20.95;;;18.75;;
56860;SDS011;42744;51.094;3.490;2022-08-25T13:36:34;26.85;;;19.70;;
56860;SDS011;42744;51.094;3.490;2022-08-25T13:39:26;22.00;;;17.67;;
56860;SDS011;42744;51.094;3.490;2022-08-25T13:41:55;23.00;;;19.05;;
56860;SDS011;42744;51.094;3.490;2022-08-25T13:44:26;23.55;;;18.98;;
56860;SDS011;42744;51.094;3.490;2022-08-25T13:49:41;21.95;;;18.40;;
56860;SDS011;42744;51.094;3.490;2022-08-25T13:52:30;20.45;;;15.60;;
56860;SDS011;42744;51.094;3.490;2022-08-25T13:54:58;19.37;;;14.30;;
56860;SDS011;42744;51.094;3.490;2022-08-25T13:57:26;15.23;;;12.75;;
56860;SDS011;42744;51.094;3.490;2022-08-25T14:00:03;18.17;;;13.93;;
56860;SDS011;42744;51.094;3.490;2022-08-25T14:05:15;16.12;;;10.02;;
56860;SDS011;42744;51.094;3.490;2022-08-25T14:07:54;10.75;;;8.57;;
56860;SDS011;42744;51.094;3.490;2022-08-25T14:10:36;12.25;;;9.10;;
56860;SDS011;42744;51.094;3.490;2022-08-25T14:15:35;11.48;;;8.65;;
56860;SDS011;42744;51.094;3.490;2022-08-25T14:20:31;14.05;;;8.10;;
56860;SDS011;42744;51.094;3.490;2022-08-25T14:23:06;11.75;;;7.68;;
56860;SDS011;42744;51.094;3.490;2022-08-25T14:25:37;10.80;;;7.47;;
56860;SDS011;42744;51.094;3.490;2022-08-25T14:28:05;9.70;;;7.40;;
56860;SDS011;42744;51.094;3.490;2022-08-25T14:30:38;10.77;;;7.35;;
56860;SDS011;42744;51.094;3.490;2022-08-25T14:33:07;15.05;;;6.47;;
56860;SDS011;42744;51.094;3.490;2022-08-25T14:35:33;7.90;;;5.97;;
56860;SDS011;42744;51.094;3.490;2022-08-25T14:38:02;11.55;;;5.60;;
56860;SDS011;42744;51.094;3.490;2022-08-25T14:40:33;9.63;;;5.50;;
56860;SDS011;42744;51.094;3.490;2022-08-25T14:42:59;13.30;;;4.72;;
56860;SDS011;42744;51.094;3.490;2022-08-25T14:45:25;8.18;;;5.57;;
56860;SDS011;42744;51.094;3.490;2022-08-25T14:47:51;14.05;;;5.03;;
56860;SDS011;42744;51.094;3.490;2022-08-25T14:50:19;8.82;;;4.28;;
56860;SDS011;42744;51.094;3.490;2022-08-25T14:52:46;7.65;;;4.53;;
56860;SDS011;42744;51.094;3.490;2022-08-25T14:55:13;16.62;;;5.03;;
56860;SDS011;42744;51.094;3.490;2022-08-25T14:57:39;13.32;;;6.45;;
56860;SDS011;42744;51.094;3.490;2022-08-25T15:00:05;11.95;;;5.53;;
56860;SDS011;42744;51.094;3.490;2022-08-25T15:02:33;13.50;;;5.18;;
56860;SDS011;42744;51.094;3.490;2022-08-25T15:05:02;13.98;;;6.10;;
56860;SDS011;42744;51.094;3.490;2022-08-25T15:07:30;9.88;;;4.72;;
56860;SDS011;42744;51.094;3.490;2022-08-25T15:10:16;13.65;;;6.45;;
56860;SDS011;42744;51.094;3.490;2022-08-25T15:12:42;10.73;;;5.20;;
56860;SDS011;42744;51.094;3.490;2022-08-25T15:15:08;11.05;;;5.60;;
56860;SDS011;42744;51.094;3.490;2022-08-25T15:17:35;12.45;;;5.20;;
56860;SDS011;42744;51.094;3.490;2022-08-25T15:20:04;13.60;;;6.18;;
56860;SDS011;42744;51.094;3.490;2022-08-25T15:22:33;15.52;;;5.20;;
56860;SDS011;42744;51.094;3.490;2022-08-25T15:24:59;9.73;;;5.03;;
56860;SDS011;42744;51.094;3.490;2022-08-25T15:27:25;12.63;;;5.53;;
56860;SDS011;42744;51.094;3.490;2022-08-25T15:29:51;13.13;;;6.50;;
56860;SDS011;42744;51.094;3.490;2022-08-25T15:32:17;11.82;;;5.97;;
56860;SDS011;42744;51.094;3.490;2022-08-25T15:34:43;11.85;;;5.32;;
56860;SDS011;42744;51.094;3.490;2022-08-25T15:37:13;13.57;;;4.82;;
56860;SDS011;42744;51.094;3.490;2022-08-25T15:39:41;13.27;;;6.87;;
56860;SDS011;42744;51.094;3.490;2022-08-25T15:42:09;14.98;;;5.15;;
56860;SDS011;42744;51.094;3.490;2022-08-25T15:44:38;12.35;;;5.78;;
56860;SDS011;42744;51.094;3.490;2022-08-25T15:47:05;12.32;;;5.60;;
56860;SDS011;42744;51.094;3.490;2022-08-25T15:49:31;16.80;;;5.37;;
56860;SDS011;42744;51.094;3.490;2022-08-25T15:51:57;14.98;;;4.72;;
56860;SDS011;42744;51.094;3.490;2022-08-25T15:54:24;8.93;;;4.10;;
56860;SDS011;42744;51.094;3.490;2022-08-25T15:56:51;11.77;;;4.40;;
56860;SDS011;42744;51.094;3.490;2022-08-25T15:59:18;8.63;;;3.35;;
56860;SDS011;42744;51.094;3.490;2022-08-25T16:01:44;7.65;;;3.10;;
56860;SDS011;42744;51.094;3.490;2022-08-25T16:04:10;12.90;;;4.40;;
56860;SDS011;42744;51.094;3.490;2022-08-25T16:06:37;9.07;;;3.62;;
56860;SDS011;42744;51.094;3.490;2022-08-25T16:09:04;10.43;;;3.22;;
56860;SDS011;42744;51.094;3.490;2022-08-25T16:11:31;7.45;;;3.28;;
56860;SDS011;42744;51.094;3.490;2022-08-25T16:13:59;8.00;;;3.00;;
56860;SDS011;42744;51.094;3.490;2022-08-25T16:16:27;10.30;;;3.08;;
56860;SDS011;42744;51.094;3.490;2022-08-25T16:18:55;9.20;;;2.70;;
56860;SDS011;42744;51.094;3.490;2022-08-25T16:21:23;7.78;;;2.62;;
56860;SDS011;42744;51.094;3.490;2022-08-25T16:23:56;7.03;;;2.35;;
56860;SDS011;42744;51.094;3.490;2022-08-25T16:26:24;6.97;;;2.58;;
56860;SDS011;42744;51.094;3.490;2022-08-25T16:28:51;5.93;;;2.80;;
56860;SDS011;42744;51.094;3.490;2022-08-25T16:31:17;6.68;;;2.37;;
56860;SDS011;42744;51.094;3.490;2022-08-25T16:33:43;9.82;;;3.00;;
56860;SDS011;42744;51.094;3.490;2022-08-25T16:36:11;8.45;;;2.45;;
56860;SDS011;42744;51.094;3.490;2022-08-25T16:38:40;11.77;;;2.17;;
56860;SDS011;42744;51.094;3.490;2022-08-25T16:41:11;6.22;;;2.70;;
56860;SDS011;42744;51.094;3.490;2022-08-25T16:43:39;5.87;;;2.15;;
56860;SDS011;42744;51.094;3.490;2022-08-25T16:46:07;8.05;;;2.53;;
56860;SDS011;42744;51.094;3.490;2022-08-25T16:48:36;6.10;;;2.20;;
56860;SDS011;42744;51.094;3.490;2022-08-25T16:51:10;8.77;;;2.90;;
56860;SDS011;42744;51.094;3.490;2022-08-25T16:53:38;8.95;;;2.37;;